sensor_id;sensor_type;location;lat;lon;timestamp;P1;durP1;ratioP1;P2;durP2;ratioP2
35592;SDS011;64447;52.140;5.602;2023-04-24T00:01:31;2.63;;;1.70;;
35592;SDS011;64447;52.140;5.602;2023-04-24T00:03:56;2.20;;;1.50;;
35592;SDS011;64447;52.140;5.602;2023-04-24T00:06:24;2.20;;;2.00;;
35592;SDS011;64447;52.140;5.602;2023-04-24T00:09:01;3.53;;;2.17;;
35592;SDS011;64447;52.140;5.602;2023-04-24T00:11:28;3.00;;;2.70;;
35592;SDS011;64447;52.140;5.602;2023-04-24T00:17:16;4.60;;;4.20;;
35592;SDS011;64447;52.140;5.602;2023-04-24T00:19:45;5.38;;;4.88;;
35592;SDS011;64447;52.140;5.602;2023-04-24T00:22:11;6.10;;;5.10;;
35592;SDS011;64447;52.140;5.602;2023-04-24T00:24:38;5.20;;;4.70;;
35592;SDS011;64447;52.140;5.602;2023-04-24T00:27:04;5.80;;;4.90;;
35592;SDS011;64447;52.140;5.602;2023-04-24T00:29:30;6.80;;;6.00;;
35592;SDS011;64447;52.140;5.602;2023-04-24T00:31:55;7.25;;;5.88;;
35592;SDS011;64447;52.140;5.602;2023-04-24T00:34:21;7.07;;;6.38;;
35592;SDS011;64447;52.140;5.602;2023-04-24T00:36:46;7.80;;;6.43;;
35592;SDS011;64447;52.140;5.602;2023-04-24T00:39:14;8.80;;;6.22;;
35592;SDS011;64447;52.140;5.602;2023-04-24T00:41:40;8.63;;;6.22;;
35592;SDS011;64447;52.140;5.602;2023-04-24T00:44:06;9.02;;;6.22;;
35592;SDS011;64447;52.140;5.602;2023-04-24T00:46:32;6.18;;;5.57;;
35592;SDS011;64447;52.140;5.602;2023-04-24T00:48:58;6.55;;;5.70;;
35592;SDS011;64447;52.140;5.602;2023-04-24T00:51:24;5.85;;;5.28;;
35592;SDS011;64447;52.140;5.602;2023-04-24T00:53:50;7.40;;;5.43;;
35592;SDS011;64447;52.140;5.602;2023-04-24T00:56:17;6.03;;;5.43;;
35592;SDS011;64447;52.140;5.602;2023-04-24T01:02:04;5.43;;;4.93;;
35592;SDS011;64447;52.140;5.602;2023-04-24T01:04:30;5.82;;;4.82;;
35592;SDS011;64447;52.140;5.602;2023-04-24T01:06:56;6.82;;;5.97;;
35592;SDS011;64447;52.140;5.602;2023-04-24T01:09:23;6.40;;;5.80;;
35592;SDS011;64447;52.140;5.602;2023-04-24T01:11:49;7.63;;;5.95;;
35592;SDS011;64447;52.140;5.602;2023-04-24T01:14:15;7.13;;;6.22;;
35592;SDS011;64447;52.140;5.602;2023-04-24T01:16:40;7.70;;;6.88;;
35592;SDS011;64447;52.140;5.602;2023-04-24T01:19:06;7.93;;;6.90;;
35592;SDS011;64447;52.140;5.602;2023-04-24T01:21:34;9.90;;;6.97;;
35592;SDS011;64447;52.140;5.602;2023-04-24T01:24:02;8.82;;;6.50;;
35592;SDS011;64447;52.140;5.602;2023-04-24T01:26:31;8.80;;;6.80;;
35592;SDS011;64447;52.140;5.602;2023-04-24T01:32:19;8.50;;;7.40;;
35592;SDS011;64447;52.140;5.602;2023-04-24T01:34:45;8.25;;;6.93;;
35592;SDS011;64447;52.140;5.602;2023-04-24T01:37:11;10.15;;;7.70;;
35592;SDS011;64447;52.140;5.602;2023-04-24T01:39:37;9.45;;;8.02;;
35592;SDS011;64447;52.140;5.602;2023-04-24T01:42:03;8.63;;;7.18;;
35592;SDS011;64447;52.140;5.602;2023-04-24T01:44:30;11.63;;;7.40;;
35592;SDS011;64447;52.140;5.602;2023-04-24T01:46:56;9.25;;;7.95;;
35592;SDS011;64447;52.140;5.602;2023-04-24T01:49:22;11.00;;;8.05;;
35592;SDS011;64447;52.140;5.602;2023-04-24T01:51:47;9.50;;;7.93;;
35592;SDS011;64447;52.140;5.602;2023-04-24T01:54:13;11.98;;;8.48;;
35592;SDS011;64447;52.140;5.602;2023-04-24T01:56:40;9.38;;;8.15;;
35592;SDS011;64447;52.140;5.602;2023-04-24T02:02:31;11.38;;;9.02;;
35592;SDS011;64447;52.140;5.602;2023-04-24T02:04:57;11.48;;;9.05;;
35592;SDS011;64447;52.140;5.602;2023-04-24T02:07:22;13.55;;;9.23;;
35592;SDS011;64447;52.140;5.602;2023-04-24T02:09:48;12.93;;;8.77;;
35592;SDS011;64447;52.140;5.602;2023-04-24T02:12:16;12.02;;;8.90;;
35592;SDS011;64447;52.140;5.602;2023-04-24T02:14:42;10.55;;;7.78;;
35592;SDS011;64447;52.140;5.602;2023-04-24T02:17:08;11.35;;;7.45;;
35592;SDS011;64447;52.140;5.602;2023-04-24T02:19:34;11.13;;;7.75;;
35592;SDS011;64447;52.140;5.602;2023-04-24T02:22:00;7.15;;;6.13;;
35592;SDS011;64447;52.140;5.602;2023-04-24T02:24:25;6.55;;;5.00;;
35592;SDS011;64447;52.140;5.602;2023-04-24T02:26:51;5.30;;;4.13;;
35592;SDS011;64447;52.140;5.602;2023-04-24T02:32:39;4.93;;;4.43;;
35592;SDS011;64447;52.140;5.602;2023-04-24T02:35:04;5.90;;;4.93;;
35592;SDS011;64447;52.140;5.602;2023-04-24T02:37:30;6.63;;;5.65;;
35592;SDS011;64447;52.140;5.602;2023-04-24T02:39:56;8.85;;;6.90;;
35592;SDS011;64447;52.140;5.602;2023-04-24T02:42:22;7.45;;;6.57;;
35592;SDS011;64447;52.140;5.602;2023-04-24T02:44:47;10.80;;;7.20;;
35592;SDS011;64447;52.140;5.602;2023-04-24T02:47:13;8.25;;;6.85;;
35592;SDS011;64447;52.140;5.602;2023-04-24T02:49:38;6.85;;;5.95;;
35592;SDS011;64447;52.140;5.602;2023-04-24T02:52:04;7.80;;;6.43;;
35592;SDS011;64447;52.140;5.602;2023-04-24T02:54:29;8.80;;;6.55;;
35592;SDS011;64447;52.140;5.602;2023-04-24T02:56:55;9.63;;;6.50;;
35592;SDS011;64447;52.140;5.602;2023-04-24T03:02:43;10.55;;;7.45;;
35592;SDS011;64447;52.140;5.602;2023-04-24T03:05:10;10.30;;;7.47;;
35592;SDS011;64447;52.140;5.602;2023-04-24T03:07:37;8.52;;;7.45;;
35592;SDS011;64447;52.140;5.602;2023-04-24T03:10:03;9.98;;;7.50;;
35592;SDS011;64447;52.140;5.602;2023-04-24T03:12:30;10.38;;;7.10;;
35592;SDS011;64447;52.140;5.602;2023-04-24T03:14:56;10.70;;;7.40;;
35592;SDS011;64447;52.140;5.602;2023-04-24T03:17:21;9.20;;;7.70;;
35592;SDS011;64447;52.140;5.602;2023-04-24T03:19:47;8.35;;;6.40;;
35592;SDS011;64447;52.140;5.602;2023-04-24T03:22:13;7.18;;;6.18;;
35592;SDS011;64447;52.140;5.602;2023-04-24T03:24:38;6.70;;;5.28;;
35592;SDS011;64447;52.140;5.602;2023-04-24T03:27:04;7.38;;;5.75;;
35592;SDS011;64447;52.140;5.602;2023-04-24T03:32:51;6.95;;;5.55;;
35592;SDS011;64447;52.140;5.602;2023-04-24T03:35:17;8.20;;;6.20;;
35592;SDS011;64447;52.140;5.602;2023-04-24T03:37:42;9.65;;;6.13;;
35592;SDS011;64447;52.140;5.602;2023-04-24T03:40:08;6.82;;;5.93;;
35592;SDS011;64447;52.140;5.602;2023-04-24T03:42:34;8.27;;;6.38;;
35592;SDS011;64447;52.140;5.602;2023-04-24T03:48:22;8.50;;;6.43;;
35592;SDS011;64447;52.140;5.602;2023-04-24T03:50:47;10.18;;;7.57;;
35592;SDS011;64447;52.140;5.602;2023-04-24T03:53:13;8.88;;;7.20;;
35592;SDS011;64447;52.140;5.602;2023-04-24T03:55:38;8.45;;;6.75;;
35592;SDS011;64447;52.140;5.602;2023-04-24T03:58:04;9.15;;;6.88;;
35592;SDS011;64447;52.140;5.602;2023-04-24T04:00:30;9.93;;;6.55;;
35592;SDS011;64447;52.140;5.602;2023-04-24T04:02:57;8.13;;;6.68;;
35592;SDS011;64447;52.140;5.602;2023-04-24T04:05:22;11.30;;;6.75;;
35592;SDS011;64447;52.140;5.602;2023-04-24T04:07:48;8.73;;;6.47;;
35592;SDS011;64447;52.140;5.602;2023-04-24T04:10:13;11.30;;;5.97;;
35592;SDS011;64447;52.140;5.602;2023-04-24T04:12:39;8.73;;;6.00;;
35592;SDS011;64447;52.140;5.602;2023-04-24T04:18:27;6.28;;;5.18;;
35592;SDS011;64447;52.140;5.602;2023-04-24T04:20:52;6.72;;;5.10;;
35592;SDS011;64447;52.140;5.602;2023-04-24T04:23:18;5.72;;;4.63;;
35592;SDS011;64447;52.140;5.602;2023-04-24T04:25:43;5.95;;;4.50;;
35592;SDS011;64447;52.140;5.602;2023-04-24T04:28:09;5.57;;;4.20;;
35592;SDS011;64447;52.140;5.602;2023-04-24T04:30:35;4.97;;;3.45;;
35592;SDS011;64447;52.140;5.602;2023-04-24T04:33:03;4.25;;;3.65;;
35592;SDS011;64447;52.140;5.602;2023-04-24T04:35:28;4.22;;;3.55;;
35592;SDS011;64447;52.140;5.602;2023-04-24T04:37:54;5.05;;;3.40;;
35592;SDS011;64447;52.140;5.602;2023-04-24T04:40:23;4.15;;;3.38;;
35592;SDS011;64447;52.140;5.602;2023-04-24T04:42:49;4.55;;;3.95;;
35592;SDS011;64447;52.140;5.602;2023-04-24T04:45:17;4.53;;;3.53;;
35592;SDS011;64447;52.140;5.602;2023-04-24T04:47:43;5.88;;;4.30;;
35592;SDS011;64447;52.140;5.602;2023-04-24T04:50:09;5.70;;;4.20;;
35592;SDS011;64447;52.140;5.602;2023-04-24T04:52:35;4.65;;;3.95;;
35592;SDS011;64447;52.140;5.602;2023-04-24T04:55:01;5.43;;;4.60;;
35592;SDS011;64447;52.140;5.602;2023-04-24T04:57:27;6.93;;;4.80;;
35592;SDS011;64447;52.140;5.602;2023-04-24T05:03:14;5.10;;;4.22;;
35592;SDS011;64447;52.140;5.602;2023-04-24T05:05:40;3.83;;;3.42;;
35592;SDS011;64447;52.140;5.602;2023-04-24T05:08:07;5.93;;;3.47;;
35592;SDS011;64447;52.140;5.602;2023-04-24T05:10:33;3.88;;;3.13;;
35592;SDS011;64447;52.140;5.602;2023-04-24T05:12:59;4.30;;;3.35;;
35592;SDS011;64447;52.140;5.602;2023-04-24T05:18:47;4.28;;;2.72;;
35592;SDS011;64447;52.140;5.602;2023-04-24T05:21:13;3.97;;;2.80;;
35592;SDS011;64447;52.140;5.602;2023-04-24T05:23:38;6.13;;;3.13;;
35592;SDS011;64447;52.140;5.602;2023-04-24T05:26:04;4.20;;;3.38;;
35592;SDS011;64447;52.140;5.602;2023-04-24T05:28:30;4.78;;;3.80;;
35592;SDS011;64447;52.140;5.602;2023-04-24T05:30:55;4.63;;;3.90;;
35592;SDS011;64447;52.140;5.602;2023-04-24T05:33:21;5.45;;;4.15;;
35592;SDS011;64447;52.140;5.602;2023-04-24T05:35:47;4.63;;;3.88;;
35592;SDS011;64447;52.140;5.602;2023-04-24T05:38:13;5.40;;;4.22;;
35592;SDS011;64447;52.140;5.602;2023-04-24T05:40:42;6.43;;;4.20;;
35592;SDS011;64447;52.140;5.602;2023-04-24T05:43:08;5.63;;;4.10;;
35592;SDS011;64447;52.140;5.602;2023-04-24T05:48:55;6.00;;;4.60;;
35592;SDS011;64447;52.140;5.602;2023-04-24T05:51:21;6.53;;;4.82;;
35592;SDS011;64447;52.140;5.602;2023-04-24T05:53:47;7.22;;;4.53;;
35592;SDS011;64447;52.140;5.602;2023-04-24T05:56:12;5.60;;;4.07;;
35592;SDS011;64447;52.140;5.602;2023-04-24T05:58:38;6.20;;;4.32;;
35592;SDS011;64447;52.140;5.602;2023-04-24T06:01:04;8.57;;;4.60;;
35592;SDS011;64447;52.140;5.602;2023-04-24T06:03:30;6.78;;;4.75;;
35592;SDS011;64447;52.140;5.602;2023-04-24T06:05:56;7.00;;;4.30;;
35592;SDS011;64447;52.140;5.602;2023-04-24T06:08:22;9.52;;;5.57;;
35592;SDS011;64447;52.140;5.602;2023-04-24T06:10:47;9.57;;;5.25;;
35592;SDS011;64447;52.140;5.602;2023-04-24T06:13:13;6.30;;;4.45;;
35592;SDS011;64447;52.140;5.602;2023-04-24T06:19:00;7.60;;;4.72;;
35592;SDS011;64447;52.140;5.602;2023-04-24T06:21:26;8.38;;;5.38;;
35592;SDS011;64447;52.140;5.602;2023-04-24T06:23:52;8.45;;;5.63;;
35592;SDS011;64447;52.140;5.602;2023-04-24T06:26:18;9.90;;;5.18;;
35592;SDS011;64447;52.140;5.602;2023-04-24T06:28:44;7.20;;;5.35;;
35592;SDS011;64447;52.140;5.602;2023-04-24T06:31:10;9.10;;;5.10;;
35592;SDS011;64447;52.140;5.602;2023-04-24T06:33:36;8.48;;;5.38;;
35592;SDS011;64447;52.140;5.602;2023-04-24T06:36:01;5.97;;;4.15;;
35592;SDS011;64447;52.140;5.602;2023-04-24T06:38:28;5.88;;;4.07;;
35592;SDS011;64447;52.140;5.602;2023-04-24T06:40:55;5.07;;;4.03;;
35592;SDS011;64447;52.140;5.602;2023-04-24T06:43:22;5.32;;;3.90;;
35592;SDS011;64447;52.140;5.602;2023-04-24T06:49:10;5.55;;;3.80;;
35592;SDS011;64447;52.140;5.602;2023-04-24T06:51:35;3.63;;;2.67;;
35592;SDS011;64447;52.140;5.602;2023-04-24T06:54:01;5.65;;;2.80;;
35592;SDS011;64447;52.140;5.602;2023-04-24T06:56:27;4.88;;;3.05;;
35592;SDS011;64447;52.140;5.602;2023-04-24T06:58:54;3.15;;;2.50;;
35592;SDS011;64447;52.140;5.602;2023-04-24T07:01:21;7.32;;;4.90;;
35592;SDS011;64447;52.140;5.602;2023-04-24T07:03:46;11.15;;;6.53;;
35592;SDS011;64447;52.140;5.602;2023-04-24T07:06:12;11.75;;;7.88;;
35592;SDS011;64447;52.140;5.602;2023-04-24T07:08:38;15.50;;;8.75;;
35592;SDS011;64447;52.140;5.602;2023-04-24T07:11:03;15.48;;;9.98;;
35592;SDS011;64447;52.140;5.602;2023-04-24T07:13:29;18.35;;;11.35;;
35592;SDS011;64447;52.140;5.602;2023-04-24T07:19:17;18.10;;;10.95;;
35592;SDS011;64447;52.140;5.602;2023-04-24T07:21:42;19.55;;;11.75;;
35592;SDS011;64447;52.140;5.602;2023-04-24T07:24:08;17.70;;;10.95;;
35592;SDS011;64447;52.140;5.602;2023-04-24T07:26:35;18.55;;;11.43;;
35592;SDS011;64447;52.140;5.602;2023-04-24T07:29:01;19.27;;;11.27;;
35592;SDS011;64447;52.140;5.602;2023-04-24T07:31:27;17.15;;;11.18;;
35592;SDS011;64447;52.140;5.602;2023-04-24T07:33:53;18.92;;;13.23;;
35592;SDS011;64447;52.140;5.602;2023-04-24T07:36:18;21.13;;;12.48;;
35592;SDS011;64447;52.140;5.602;2023-04-24T07:38:47;20.25;;;12.35;;
35592;SDS011;64447;52.140;5.602;2023-04-24T07:41:13;20.45;;;12.63;;
35592;SDS011;64447;52.140;5.602;2023-04-24T07:43:39;21.63;;;13.20;;
35592;SDS011;64447;52.140;5.602;2023-04-24T07:46:06;26.13;;;13.90;;
35592;SDS011;64447;52.140;5.602;2023-04-24T07:48:33;22.92;;;14.43;;
35592;SDS011;64447;52.140;5.602;2023-04-24T07:50:58;24.05;;;13.95;;
35592;SDS011;64447;52.140;5.602;2023-04-24T07:53:24;22.60;;;13.18;;
35592;SDS011;64447;52.140;5.602;2023-04-24T07:55:50;22.13;;;13.27;;
35592;SDS011;64447;52.140;5.602;2023-04-24T07:58:15;20.10;;;12.85;;
35592;SDS011;64447;52.140;5.602;2023-04-24T08:04:03;20.00;;;12.07;;
35592;SDS011;64447;52.140;5.602;2023-04-24T08:06:38;20.73;;;11.48;;
35592;SDS011;64447;52.140;5.602;2023-04-24T08:09:03;20.52;;;11.45;;
35592;SDS011;64447;52.140;5.602;2023-04-24T08:11:29;19.10;;;11.18;;
35592;SDS011;64447;52.140;5.602;2023-04-24T08:13:55;22.95;;;12.35;;
35592;SDS011;64447;52.140;5.602;2023-04-24T08:16:20;18.15;;;11.27;;
35592;SDS011;64447;52.140;5.602;2023-04-24T08:18:46;19.33;;;11.52;;
35592;SDS011;64447;52.140;5.602;2023-04-24T08:21:12;22.92;;;12.30;;
35592;SDS011;64447;52.140;5.602;2023-04-24T08:23:42;21.38;;;12.30;;
35592;SDS011;64447;52.140;5.602;2023-04-24T08:26:08;21.67;;;12.35;;
35592;SDS011;64447;52.140;5.602;2023-04-24T08:28:33;22.27;;;12.02;;
35592;SDS011;64447;52.140;5.602;2023-04-24T08:34:21;17.92;;;9.35;;
35592;SDS011;64447;52.140;5.602;2023-04-24T08:36:47;14.27;;;7.35;;
35592;SDS011;64447;52.140;5.602;2023-04-24T08:39:13;19.90;;;8.23;;
35592;SDS011;64447;52.140;5.602;2023-04-24T08:41:40;16.17;;;7.78;;
35592;SDS011;64447;52.140;5.602;2023-04-24T08:44:07;16.17;;;8.30;;
35592;SDS011;64447;52.140;5.602;2023-04-24T08:46:34;14.75;;;8.02;;
35592;SDS011;64447;52.140;5.602;2023-04-24T08:49:01;19.25;;;7.25;;
35592;SDS011;64447;52.140;5.602;2023-04-24T08:51:27;13.13;;;6.85;;
35592;SDS011;64447;52.140;5.602;2023-04-24T08:53:55;11.45;;;4.55;;
35592;SDS011;64447;52.140;5.602;2023-04-24T08:56:22;11.93;;;5.43;;
35592;SDS011;64447;52.140;5.602;2023-04-24T08:58:49;15.27;;;5.53;;
35592;SDS011;64447;52.140;5.602;2023-04-24T09:04:40;12.80;;;4.72;;
35592;SDS011;64447;52.140;5.602;2023-04-24T09:07:08;15.85;;;5.95;;
35592;SDS011;64447;52.140;5.602;2023-04-24T09:09:34;13.73;;;6.40;;
35592;SDS011;64447;52.140;5.602;2023-04-24T09:12:01;12.00;;;6.38;;
35592;SDS011;64447;52.140;5.602;2023-04-24T09:14:28;18.70;;;6.97;;
35592;SDS011;64447;52.140;5.602;2023-04-24T09:16:56;14.68;;;6.57;;
35592;SDS011;64447;52.140;5.602;2023-04-24T09:19:22;16.20;;;7.03;;
35592;SDS011;64447;52.140;5.602;2023-04-24T09:21:47;14.82;;;5.32;;
35592;SDS011;64447;52.140;5.602;2023-04-24T09:24:17;17.05;;;5.53;;
35592;SDS011;64447;52.140;5.602;2023-04-24T09:26:45;12.27;;;4.50;;
35592;SDS011;64447;52.140;5.602;2023-04-24T09:29:17;11.10;;;3.83;;
35592;SDS011;64447;52.140;5.602;2023-04-24T09:31:44;6.57;;;3.47;;
35592;SDS011;64447;52.140;5.602;2023-04-24T09:34:10;6.97;;;3.33;;
35592;SDS011;64447;52.140;5.602;2023-04-24T09:36:37;11.40;;;4.15;;
35592;SDS011;64447;52.140;5.602;2023-04-24T09:39:08;8.93;;;3.80;;
35592;SDS011;64447;52.140;5.602;2023-04-24T09:41:36;11.82;;;3.88;;
35592;SDS011;64447;52.140;5.602;2023-04-24T09:44:13;10.90;;;3.67;;
35592;SDS011;64447;52.140;5.602;2023-04-24T09:46:41;10.32;;;3.67;;
35592;SDS011;64447;52.140;5.602;2023-04-24T09:49:08;11.02;;;3.75;;
35592;SDS011;64447;52.140;5.602;2023-04-24T09:51:36;9.63;;;3.72;;
35592;SDS011;64447;52.140;5.602;2023-04-24T09:54:03;11.13;;;4.13;;
35592;SDS011;64447;52.140;5.602;2023-04-24T09:56:32;8.20;;;3.00;;
35592;SDS011;64447;52.140;5.602;2023-04-24T09:59:04;10.68;;;4.07;;
35592;SDS011;64447;52.140;5.602;2023-04-24T10:04:56;8.77;;;3.25;;
35592;SDS011;64447;52.140;5.602;2023-04-24T10:07:25;12.68;;;3.53;;
35592;SDS011;64447;52.140;5.602;2023-04-24T10:09:51;8.52;;;3.83;;
35592;SDS011;64447;52.140;5.602;2023-04-24T10:12:17;11.25;;;3.30;;
35592;SDS011;64447;52.140;5.602;2023-04-24T10:14:44;9.45;;;3.53;;
35592;SDS011;64447;52.140;5.602;2023-04-24T10:17:11;10.25;;;3.35;;
35592;SDS011;64447;52.140;5.602;2023-04-24T10:19:37;14.77;;;4.03;;
35592;SDS011;64447;52.140;5.602;2023-04-24T10:22:04;10.70;;;4.18;;
35592;SDS011;64447;52.140;5.602;2023-04-24T10:24:30;12.15;;;4.57;;
35592;SDS011;64447;52.140;5.602;2023-04-24T10:26:58;7.80;;;3.50;;
35592;SDS011;64447;52.140;5.602;2023-04-24T10:29:26;8.20;;;4.00;;
35592;SDS011;64447;52.140;5.602;2023-04-24T10:31:52;10.18;;;3.80;;
35592;SDS011;64447;52.140;5.602;2023-04-24T10:34:18;10.38;;;3.30;;
35592;SDS011;64447;52.140;5.602;2023-04-24T10:36:48;9.90;;;2.95;;
35592;SDS011;64447;52.140;5.602;2023-04-24T10:39:17;10.82;;;3.08;;
35592;SDS011;64447;52.140;5.602;2023-04-24T10:41:45;10.32;;;3.47;;
35592;SDS011;64447;52.140;5.602;2023-04-24T10:44:14;8.05;;;2.90;;
35592;SDS011;64447;52.140;5.602;2023-04-24T10:50:03;4.88;;;2.85;;
35592;SDS011;64447;52.140;5.602;2023-04-24T10:52:47;5.60;;;2.05;;
35592;SDS011;64447;52.140;5.602;2023-04-24T10:55:16;7.63;;;2.20;;
35592;SDS011;64447;52.140;5.602;2023-04-24T10:58:02;3.88;;;1.80;;
35592;SDS011;64447;52.140;5.602;2023-04-24T11:00:28;4.80;;;1.50;;
35592;SDS011;64447;52.140;5.602;2023-04-24T11:02:54;3.00;;;1.55;;
35592;SDS011;64447;52.140;5.602;2023-04-24T11:05:21;6.35;;;2.00;;
35592;SDS011;64447;52.140;5.602;2023-04-24T11:10:46;4.72;;;1.60;;
35592;SDS011;64447;52.140;5.602;2023-04-24T11:13:21;3.38;;;1.73;;
35592;SDS011;64447;52.140;5.602;2023-04-24T11:18:40;6.07;;;1.48;;
35592;SDS011;64447;52.140;5.602;2023-04-24T11:21:15;4.05;;;1.75;;
35592;SDS011;64447;52.140;5.602;2023-04-24T11:23:42;3.50;;;1.88;;
35592;SDS011;64447;52.140;5.602;2023-04-24T11:26:17;4.57;;;1.75;;
35592;SDS011;64447;52.140;5.602;2023-04-24T11:28:46;4.13;;;1.90;;
35592;SDS011;64447;52.140;5.602;2023-04-24T11:34:14;3.47;;;1.60;;
35592;SDS011;64447;52.140;5.602;2023-04-24T11:36:40;5.10;;;1.88;;
35592;SDS011;64447;52.140;5.602;2023-04-24T11:39:12;5.80;;;1.90;;
35592;SDS011;64447;52.140;5.602;2023-04-24T11:41:38;7.03;;;2.03;;
35592;SDS011;64447;52.140;5.602;2023-04-24T11:44:06;4.38;;;1.75;;
35592;SDS011;64447;52.140;5.602;2023-04-24T11:46:33;5.82;;;1.90;;
35592;SDS011;64447;52.140;5.602;2023-04-24T11:48:59;6.18;;;1.60;;
35592;SDS011;64447;52.140;5.602;2023-04-24T11:51:26;3.00;;;1.58;;
35592;SDS011;64447;52.140;5.602;2023-04-24T11:53:55;5.35;;;1.63;;
35592;SDS011;64447;52.140;5.602;2023-04-24T11:56:24;5.90;;;1.67;;
35592;SDS011;64447;52.140;5.602;2023-04-24T11:58:53;3.67;;;1.67;;
35592;SDS011;64447;52.140;5.602;2023-04-24T12:01:19;5.72;;;1.90;;
35592;SDS011;64447;52.140;5.602;2023-04-24T12:03:49;3.88;;;1.60;;
35592;SDS011;64447;52.140;5.602;2023-04-24T12:06:18;2.65;;;1.27;;
35592;SDS011;64447;52.140;5.602;2023-04-24T12:08:47;4.45;;;1.70;;
35592;SDS011;64447;52.140;5.602;2023-04-24T12:11:14;1.70;;;1.05;;
35592;SDS011;64447;52.140;5.602;2023-04-24T12:13:41;1.50;;;1.00;;
35592;SDS011;64447;52.140;5.602;2023-04-24T12:16:07;4.90;;;1.10;;
35592;SDS011;64447;52.140;5.602;2023-04-24T12:18:32;2.38;;;1.20;;
35592;SDS011;64447;52.140;5.602;2023-04-24T12:23:46;1.50;;;0.73;;
35592;SDS011;64447;52.140;5.602;2023-04-24T12:26:16;1.25;;;0.82;;
35592;SDS011;64447;52.140;5.602;2023-04-24T12:28:45;2.00;;;1.17;;
35592;SDS011;64447;52.140;5.602;2023-04-24T12:31:13;4.32;;;1.25;;
35592;SDS011;64447;52.140;5.602;2023-04-24T12:33:38;7.55;;;1.38;;
35592;SDS011;64447;52.140;5.602;2023-04-24T12:36:04;6.15;;;1.15;;
35592;SDS011;64447;52.140;5.602;2023-04-24T12:38:31;4.10;;;1.45;;
35592;SDS011;64447;52.140;5.602;2023-04-24T12:41:12;4.60;;;1.90;;
35592;SDS011;64447;52.140;5.602;2023-04-24T12:43:38;7.38;;;2.08;;
35592;SDS011;64447;52.140;5.602;2023-04-24T12:46:15;3.70;;;1.83;;
35592;SDS011;64447;52.140;5.602;2023-04-24T12:48:41;4.55;;;1.65;;
35592;SDS011;64447;52.140;5.602;2023-04-24T12:51:06;4.18;;;1.85;;
35592;SDS011;64447;52.140;5.602;2023-04-24T12:53:32;4.65;;;1.73;;
35592;SDS011;64447;52.140;5.602;2023-04-24T12:55:57;3.72;;;1.40;;
35592;SDS011;64447;52.140;5.602;2023-04-24T12:58:23;5.72;;;1.67;;
35592;SDS011;64447;52.140;5.602;2023-04-24T13:00:49;4.38;;;2.08;;
35592;SDS011;64447;52.140;5.602;2023-04-24T13:03:15;4.63;;;2.33;;
35592;SDS011;64447;52.140;5.602;2023-04-24T13:05:42;2.60;;;1.42;;
35592;SDS011;64447;52.140;5.602;2023-04-24T13:08:08;5.90;;;2.22;;
35592;SDS011;64447;52.140;5.602;2023-04-24T13:10:34;6.30;;;2.03;;
35592;SDS011;64447;52.140;5.602;2023-04-24T13:13:00;7.22;;;2.50;;
35592;SDS011;64447;52.140;5.602;2023-04-24T13:15:26;8.15;;;2.25;;
35592;SDS011;64447;52.140;5.602;2023-04-24T13:17:51;14.05;;;2.53;;
35592;SDS011;64447;52.140;5.602;2023-04-24T13:20:17;9.57;;;2.50;;
35592;SDS011;64447;52.140;5.602;2023-04-24T13:22:43;8.50;;;2.47;;
35592;SDS011;64447;52.140;5.602;2023-04-24T13:25:09;8.85;;;2.95;;
35592;SDS011;64447;52.140;5.602;2023-04-24T13:27:35;10.00;;;3.03;;
35592;SDS011;64447;52.140;5.602;2023-04-24T13:30:02;10.07;;;3.53;;
35592;SDS011;64447;52.140;5.602;2023-04-24T13:35:50;9.27;;;3.47;;
35592;SDS011;64447;52.140;5.602;2023-04-24T13:38:16;10.15;;;3.65;;
35592;SDS011;64447;52.140;5.602;2023-04-24T13:40:41;10.10;;;3.13;;
35592;SDS011;64447;52.140;5.602;2023-04-24T13:43:07;10.23;;;2.67;;
35592;SDS011;64447;52.140;5.602;2023-04-24T13:45:32;11.05;;;2.90;;
35592;SDS011;64447;52.140;5.602;2023-04-24T13:47:58;11.63;;;2.78;;
35592;SDS011;64447;52.140;5.602;2023-04-24T13:50:24;17.40;;;3.00;;
35592;SDS011;64447;52.140;5.602;2023-04-24T13:52:49;8.80;;;3.00;;
35592;SDS011;64447;52.140;5.602;2023-04-24T13:55:15;8.63;;;2.50;;
35592;SDS011;64447;52.140;5.602;2023-04-24T13:57:41;8.70;;;3.08;;
35592;SDS011;64447;52.140;5.602;2023-04-24T14:00:07;11.27;;;3.13;;
35592;SDS011;64447;52.140;5.602;2023-04-24T14:05:56;10.70;;;3.28;;
35592;SDS011;64447;52.140;5.602;2023-04-24T14:08:22;9.90;;;3.20;;
35592;SDS011;64447;52.140;5.602;2023-04-24T14:10:48;10.10;;;3.50;;
35592;SDS011;64447;52.140;5.602;2023-04-24T14:13:13;9.70;;;3.42;;
35592;SDS011;64447;52.140;5.602;2023-04-24T14:15:39;9.35;;;3.60;;
35592;SDS011;64447;52.140;5.602;2023-04-24T14:18:05;12.55;;;3.55;;
35592;SDS011;64447;52.140;5.602;2023-04-24T14:20:30;7.55;;;3.67;;
35592;SDS011;64447;52.140;5.602;2023-04-24T14:22:57;8.25;;;3.38;;
35592;SDS011;64447;52.140;5.602;2023-04-24T14:25:25;7.68;;;3.28;;
35592;SDS011;64447;52.140;5.602;2023-04-24T14:27:51;8.02;;;2.90;;
35592;SDS011;64447;52.140;5.602;2023-04-24T14:30:17;14.93;;;3.38;;
35592;SDS011;64447;52.140;5.602;2023-04-24T14:36:04;9.50;;;3.30;;
35592;SDS011;64447;52.140;5.602;2023-04-24T14:38:30;10.93;;;3.35;;
35592;SDS011;64447;52.140;5.602;2023-04-24T14:40:56;10.27;;;3.65;;
35592;SDS011;64447;52.140;5.602;2023-04-24T14:43:22;12.57;;;4.20;;
35592;SDS011;64447;52.140;5.602;2023-04-24T14:45:47;14.02;;;3.65;;
35592;SDS011;64447;52.140;5.602;2023-04-24T14:48:13;13.57;;;3.55;;
35592;SDS011;64447;52.140;5.602;2023-04-24T14:50:39;12.13;;;4.18;;
35592;SDS011;64447;52.140;5.602;2023-04-24T14:53:05;11.60;;;4.10;;
35592;SDS011;64447;52.140;5.602;2023-04-24T14:55:30;8.23;;;3.58;;
35592;SDS011;64447;52.140;5.602;2023-04-24T14:57:56;12.98;;;3.50;;
35592;SDS011;64447;52.140;5.602;2023-04-24T15:00:22;12.35;;;3.63;;
35592;SDS011;64447;52.140;5.602;2023-04-24T15:06:12;9.40;;;3.80;;
35592;SDS011;64447;52.140;5.602;2023-04-24T15:08:38;13.93;;;3.50;;
35592;SDS011;64447;52.140;5.602;2023-04-24T15:11:03;11.52;;;4.43;;
35592;SDS011;64447;52.140;5.602;2023-04-24T15:13:29;13.48;;;4.05;;
35592;SDS011;64447;52.140;5.602;2023-04-24T15:15:55;7.20;;;3.78;;
35592;SDS011;64447;52.140;5.602;2023-04-24T15:18:20;7.07;;;3.80;;
35592;SDS011;64447;52.140;5.602;2023-04-24T15:20:46;9.68;;;3.95;;
35592;SDS011;64447;52.140;5.602;2023-04-24T15:23:12;10.57;;;4.30;;
35592;SDS011;64447;52.140;5.602;2023-04-24T15:25:37;10.48;;;3.72;;
35592;SDS011;64447;52.140;5.602;2023-04-24T15:28:03;8.10;;;3.15;;
35592;SDS011;64447;52.140;5.602;2023-04-24T15:30:32;7.75;;;2.63;;
35592;SDS011;64447;52.140;5.602;2023-04-24T15:36:20;8.60;;;3.53;;
35592;SDS011;64447;52.140;5.602;2023-04-24T15:38:46;7.68;;;3.55;;
35592;SDS011;64447;52.140;5.602;2023-04-24T15:41:12;7.05;;;3.53;;
35592;SDS011;64447;52.140;5.602;2023-04-24T15:43:38;9.68;;;3.70;;
35592;SDS011;64447;52.140;5.602;2023-04-24T15:46:06;9.60;;;4.22;;
35592;SDS011;64447;52.140;5.602;2023-04-24T15:48:32;11.68;;;4.65;;
35592;SDS011;64447;52.140;5.602;2023-04-24T15:50:58;13.63;;;4.07;;
35592;SDS011;64447;52.140;5.602;2023-04-24T15:53:24;7.75;;;4.00;;
35592;SDS011;64447;52.140;5.602;2023-04-24T15:55:50;11.82;;;4.00;;
35592;SDS011;64447;52.140;5.602;2023-04-24T15:58:17;11.05;;;4.07;;
35592;SDS011;64447;52.140;5.602;2023-04-24T16:00:44;8.73;;;4.13;;
35592;SDS011;64447;52.140;5.602;2023-04-24T16:06:31;10.80;;;4.00;;
35592;SDS011;64447;52.140;5.602;2023-04-24T16:08:57;8.52;;;4.13;;
35592;SDS011;64447;52.140;5.602;2023-04-24T16:11:23;11.18;;;3.83;;
35592;SDS011;64447;52.140;5.602;2023-04-24T16:13:48;13.32;;;4.95;;
35592;SDS011;64447;52.140;5.602;2023-04-24T16:16:14;10.95;;;4.97;;